»·PEaware :: CFGGM KSNA-KBUR

CFGGM :: KSNA-KBUR

FLIGHT INFORMATION

Flight Status: Arrived
Operator: Unknown
More flights by this operator :: More flights under this callsign
Pilot: Jeff M. (23161)
Aircraft: PIPER PA-28 CHEROKEE ARCHER
(P28A)
More flights by this aircraft type
Origin: KSNA John Wayne-Orange Co
United States
Destination: KBUR Bob Hope-Burbank
United States
More flights between these airports :: More routes between these airports
Route: SLI V23 POPPR SMO125 SMO SMO311 SILEX
File this flight plan on PilotEdge
Remarks: I-3 Rating
Altitude:
(Current/Filed)
4,000ft
Speed:
(Current/Filed)
115kts
Departed: 14-Mar-19 05:42 PM
Arrived: 14-Mar-19 06:22 PM
Distance/Time
Traveled:
40nm/0:39
Distance/Time
To Go:
Arrived

Flight Plot

Page will automatically refresh every two minutes.


Map Options




Map Legend


Flown Route
Filed Route
Departure Airport
Arrival Airport
Navaid (VOR, NDB)
Fix

Horizontal Profiles

Position Reports

Time Latitude Longitude Heading Altitude Ground
Speed
14-Mar-19 17:31 33.680589 -117.861349 137 59ft 0kts
14-Mar-19 17:32 33.680589 -117.861349 137 59ft 0kts
14-Mar-19 17:33 33.680589 -117.861349 137 59ft 0kts
14-Mar-19 17:34 33.680589 -117.861349 137 59ft 0kts
14-Mar-19 17:35 33.680589 -117.861349 137 59ft 0kts
14-Mar-19 17:36 33.680627 -117.862347 205 59ft 10kts
14-Mar-19 17:37 33.676499 -117.864957 209 59ft 21kts
14-Mar-19 17:38 33.673823 -117.867407 295 59ft 0kts
14-Mar-19 17:39 33.673823 -117.867407 295 59ft 0kts
14-Mar-19 17:40 33.673841 -117.867450 296 59ft 0kts
14-Mar-19 17:41 33.685379 -117.861200 23 342ft 81kts
14-Mar-19 17:42 33.696063 -117.876166 251 1119ft 81kts
14-Mar-19 17:43 33.688699 -117.900460 249 1930ft 79kts
14-Mar-19 17:44 33.688313 -117.925308 295 2654ft 81kts
14-Mar-19 17:45 33.698430 -117.948931 298 3376ft 78kts
14-Mar-19 17:46 33.708761 -117.972553 297 3976ft 86kts
14-Mar-19 17:47 33.721890 -118.003128 297 4053ft 111kts
14-Mar-19 17:48 33.736103 -118.036527 296 4032ft 111kts
14-Mar-19 17:49 33.750199 -118.070110 296 4013ft 111kts
14-Mar-19 17:50 33.764328 -118.103424 296 4011ft 112kts
14-Mar-19 17:51 33.778508 -118.136834 296 4015ft 112kts
14-Mar-19 17:52 33.792611 -118.170255 296 4017ft 112kts
14-Mar-19 17:53 33.806761 -118.203692 296 4019ft 112kts
14-Mar-19 17:54 33.820907 -118.237119 296 4020ft 112kts
14-Mar-19 17:55 33.835052 -118.270574 296 4021ft 112kts
14-Mar-19 17:56 33.853962 -118.299768 319 4016ft 111kts
14-Mar-19 17:57 33.877955 -118.323877 320 4009ft 112kts
14-Mar-19 17:58 33.901875 -118.347878 320 4008ft 112kts
14-Mar-19 17:59 33.925868 -118.371978 320 4008ft 112kts
14-Mar-19 18:00 33.949814 -118.396049 320 4008ft 112kts
14-Mar-19 18:01 33.973783 -118.420162 320 4007ft 112kts
14-Mar-19 18:02 33.997712 -118.444252 320 4006ft 112kts
14-Mar-19 18:03 34.019731 -118.470745 310 4005ft 112kts
14-Mar-19 18:04 34.040059 -118.499287 310 4002ft 112kts
14-Mar-19 18:05 34.060390 -118.527909 310 4000ft 112kts
14-Mar-19 18:06 34.080670 -118.556566 310 3998ft 112kts
14-Mar-19 18:07 34.100682 -118.584951 310 3995ft 112kts
14-Mar-19 18:08 34.120699 -118.613451 310 3993ft 112kts
14-Mar-19 18:09 34.146706 -118.633185 338 3960ft 113kts
14-Mar-19 18:10 34.175410 -118.647073 338 4006ft 111kts
14-Mar-19 18:11 34.200788 -118.642823 71 3986ft 114kts
14-Mar-19 18:12 34.201615 -118.605681 90 4005ft 109kts
14-Mar-19 18:13 34.201214 -118.572797 90 3951ft 90kts
14-Mar-19 18:14 34.200803 -118.544103 90 3555ft 83kts
14-Mar-19 18:15 34.200379 -118.516013 90 3117ft 83kts
14-Mar-19 18:16 34.199941 -118.488125 90 2674ft 82kts
14-Mar-19 18:17 34.199489 -118.460378 90 2236ft 82kts
14-Mar-19 18:18 34.199005 -118.432826 90 1803ft 81kts
14-Mar-19 18:19 34.198535 -118.405423 90 1373ft 81kts
14-Mar-19 18:20 34.198055 -118.378285 90 861ft 80kts
14-Mar-19 18:21 34.197196 -118.360211 209 713ft 9kts

Navigation Log

Ident Type
Flight plan parsing failed, navigation log unavailable